createdAt,value
2023-08-21T00:02:00.351Z,99.90
2023-08-21T00:04:27.825Z,99.90
2023-08-21T00:06:55.285Z,99.90
2023-08-21T00:09:22.725Z,99.90
2023-08-21T00:11:50.268Z,99.90
2023-08-21T00:14:17.755Z,99.90
2023-08-21T00:16:45.185Z,99.90
2023-08-21T00:19:13.312Z,99.90
2023-08-21T00:21:40.809Z,99.90
2023-08-21T00:24:08.323Z,99.90
2023-08-21T00:26:35.761Z,99.90
2023-08-21T00:29:03.273Z,99.90
2023-08-21T00:31:30.625Z,99.90
2023-08-21T00:33:58.131Z,99.90
2023-08-21T00:36:25.546Z,99.90
2023-08-21T00:38:53.023Z,99.90
2023-08-21T00:41:20.626Z,99.90
2023-08-21T00:43:48.184Z,99.90
2023-08-21T00:46:17.072Z,99.90
2023-08-21T00:48:45.746Z,99.90
2023-08-21T00:51:16.776Z,99.90
2023-08-21T00:53:45.704Z,99.90
2023-08-21T00:56:14.801Z,99.90
2023-08-21T00:58:42.819Z,99.90
2023-08-21T01:01:10.428Z,99.90
2023-08-21T01:03:37.984Z,99.90
2023-08-21T01:06:05.482Z,99.90
2023-08-21T01:08:43.715Z,99.90
2023-08-21T01:11:14.305Z,99.90
2023-08-21T01:13:44.859Z,99.90
2023-08-21T01:16:15.198Z,99.90
2023-08-21T01:18:44.531Z,99.90
2023-08-21T01:21:13.185Z,99.90
2023-08-21T01:23:43.518Z,99.90
2023-08-21T01:26:11.137Z,99.90
2023-08-21T01:28:39.041Z,99.90
2023-08-21T01:31:32.386Z,99.90
2023-08-21T01:34:05.584Z,99.90
2023-08-21T01:36:33.701Z,99.90
2023-08-21T01:39:01.253Z,99.90
2023-08-21T01:41:28.733Z,99.90
2023-08-21T01:43:56.216Z,99.90
2023-08-21T01:46:23.832Z,99.90
2023-08-21T01:48:51.300Z,99.90
2023-08-21T01:51:18.794Z,99.90
2023-08-21T01:53:46.274Z,99.90
2023-08-21T01:56:13.727Z,99.90
2023-08-21T01:58:41.388Z,99.90
2023-08-21T02:01:08.875Z,99.90
2023-08-21T02:03:37.094Z,99.90
2023-08-21T02:06:05.002Z,99.90
2023-08-21T02:08:35.037Z,99.90
2023-08-21T02:11:02.905Z,99.90
2023-08-21T02:13:30.520Z,99.90
2023-08-21T02:15:57.964Z,99.90
2023-08-21T02:18:25.523Z,99.90
2023-08-21T02:20:52.928Z,99.90
2023-08-21T02:23:20.442Z,99.90
2023-08-21T02:25:47.930Z,99.90
2023-08-21T02:28:15.389Z,99.90
2023-08-21T02:30:43.226Z,99.90
2023-08-21T02:33:10.746Z,99.90
2023-08-21T02:35:40.103Z,99.90
2023-08-21T02:38:07.538Z,99.90
2023-08-21T02:40:37.332Z,99.90
2023-08-21T02:43:05.787Z,99.90
2023-08-21T02:45:33.263Z,99.90
2023-08-21T02:48:00.836Z,99.90
2023-08-21T02:50:28.332Z,99.90
2023-08-21T02:52:55.916Z,99.90
2023-08-21T02:55:23.421Z,99.90
2023-08-21T02:57:50.861Z,99.90
2023-08-21T03:00:18.558Z,99.90
2023-08-21T03:02:46.086Z,99.90
2023-08-21T03:05:14.444Z,99.90
2023-08-21T03:07:42.351Z,99.90
2023-08-21T03:10:10.274Z,99.90
2023-08-21T03:12:38.154Z,99.90
2023-08-21T03:15:06.927Z,99.90
2023-08-21T03:17:34.409Z,99.90
2023-08-21T03:20:02.255Z,99.90
2023-08-21T03:22:29.880Z,99.90
2023-08-21T03:24:57.373Z,99.90
2023-08-21T03:27:25.910Z,99.90
2023-08-21T03:29:53.394Z,99.90
2023-08-21T03:32:20.919Z,99.90
2023-08-21T03:34:48.559Z,99.90
2023-08-21T03:37:16.076Z,99.90
2023-08-21T03:39:44.339Z,99.90
2023-08-21T03:42:12.651Z,99.90
2023-08-21T03:44:40.949Z,99.90
2023-08-21T03:47:08.945Z,99.90
2023-08-21T03:49:45.446Z,99.90
2023-08-21T03:52:12.930Z,99.90
2023-08-21T03:54:40.348Z,99.90
2023-08-21T03:57:08.437Z,99.90
2023-08-21T03:59:35.812Z,99.90
2023-08-21T04:02:03.265Z,99.90
2023-08-21T04:04:30.761Z,99.90
2023-08-21T04:06:58.174Z,99.90
2023-08-21T04:09:25.653Z,99.90
2023-08-21T04:11:53.056Z,99.90
2023-08-21T04:14:20.460Z,99.90
2023-08-21T04:16:48.710Z,99.90
2023-08-21T04:19:16.069Z,99.90
2023-08-21T04:21:43.512Z,99.90
2023-08-21T04:24:10.951Z,99.90
2023-08-21T04:26:38.441Z,99.90
2023-08-21T04:29:05.965Z,99.90
2023-08-21T04:31:33.819Z,99.90
2023-08-21T04:34:01.356Z,99.90
2023-08-21T04:36:29.300Z,99.90
2023-08-21T04:38:58.171Z,99.90
2023-08-21T04:41:25.572Z,99.90
2023-08-21T04:43:52.941Z,99.90
2023-08-21T04:46:21.148Z,99.90
2023-08-21T04:48:48.999Z,99.90
2023-08-21T04:51:16.992Z,99.90
2023-08-21T04:53:44.857Z,99.90
2023-08-21T04:56:17.060Z,99.90
2023-08-21T04:58:44.921Z,99.90
2023-08-21T05:01:13.321Z,99.90
2023-08-21T05:03:45.364Z,99.90
2023-08-21T05:06:13.243Z,99.90
2023-08-21T05:08:41.002Z,99.90
2023-08-21T05:11:09.772Z,99.90
2023-08-21T05:13:38.764Z,99.90
2023-08-21T05:16:09.755Z,99.90
2023-08-21T05:18:39.139Z,99.90
2023-08-21T05:21:06.566Z,99.90
2023-08-21T05:23:34.079Z,99.90
2023-08-21T05:26:05.584Z,99.90
2023-08-21T05:28:34.378Z,99.90
2023-08-21T05:31:01.855Z,99.90
2023-08-21T05:33:37.372Z,99.90
2023-08-21T05:36:05.889Z,99.90
2023-08-21T05:38:33.833Z,99.90
2023-08-21T05:41:02.124Z,99.90
2023-08-21T05:43:30.032Z,99.90
2023-08-21T05:45:58.794Z,99.90
2023-08-21T05:48:26.307Z,99.90
2023-08-21T05:50:54.056Z,99.90
2023-08-21T05:53:21.886Z,99.90
2023-08-21T05:55:49.551Z,99.90
2023-08-21T05:58:17.161Z,99.90
2023-08-21T06:00:45.565Z,99.90
2023-08-21T06:03:13.193Z,99.90
2023-08-21T06:06:06.887Z,99.90
2023-08-21T06:08:34.375Z,99.90
2023-08-21T06:11:01.876Z,99.90
2023-08-21T06:13:29.532Z,99.90
2023-08-21T06:15:57.711Z,99.90
2023-08-21T06:18:26.629Z,99.90
2023-08-21T06:20:56.367Z,99.90
2023-08-21T06:23:24.136Z,99.90
2023-08-21T06:25:52.162Z,99.90
2023-08-21T06:28:22.202Z,99.90
2023-08-21T06:30:58.283Z,99.90
2023-08-21T06:33:26.391Z,99.90
2023-08-21T06:35:55.771Z,99.90
2023-08-21T06:38:23.155Z,99.90
2023-08-21T06:40:51.792Z,99.90
2023-08-21T06:43:20.102Z,99.90
2023-08-21T06:45:48.666Z,99.90
2023-08-21T06:48:16.144Z,99.90
2023-08-21T06:50:43.635Z,99.90
2023-08-21T06:53:11.010Z,99.90
2023-08-21T06:55:38.422Z,99.90
2023-08-21T06:58:05.852Z,99.90
2023-08-21T07:00:33.402Z,99.90
2023-08-21T07:03:00.967Z,99.90
2023-08-21T07:05:28.424Z,99.90
2023-08-21T07:07:56.433Z,99.90
2023-08-21T07:10:23.877Z,99.90
2023-08-21T07:12:51.288Z,99.90
2023-08-21T07:15:18.789Z,99.90
2023-08-21T07:17:47.300Z,99.90
2023-08-21T07:20:14.724Z,99.90
2023-08-21T07:22:42.132Z,99.90
2023-08-21T07:25:09.845Z,99.90
2023-08-21T07:27:37.351Z,99.90
2023-08-21T07:30:06.250Z,99.90
2023-08-21T07:32:33.990Z,99.90
2023-08-21T07:35:01.490Z,99.90
2023-08-21T07:37:29.002Z,99.90
2023-08-21T07:39:58.910Z,99.90
2023-08-21T07:42:26.402Z,99.90
2023-08-21T07:44:54.013Z,99.90
2023-08-21T07:47:21.438Z,99.90
2023-08-21T07:49:48.880Z,99.90
2023-08-21T07:52:17.235Z,99.90
2023-08-21T07:54:44.674Z,99.90
2023-08-21T07:57:12.299Z,99.90
2023-08-21T07:59:39.754Z,99.90
2023-08-21T08:02:07.104Z,99.90
2023-08-21T08:04:34.460Z,99.90
2023-08-21T08:07:02.398Z,99.90
2023-08-21T08:09:29.927Z,99.90
2023-08-21T08:11:57.717Z,99.90
2023-08-21T08:14:25.088Z,99.90
2023-08-21T08:16:52.830Z,99.90
2023-08-21T08:19:20.352Z,99.90
2023-08-21T08:21:47.780Z,99.90
2023-08-21T08:24:15.227Z,99.90
2023-08-21T08:26:44.118Z,99.90
2023-08-21T08:29:11.581Z,99.90
2023-08-21T08:31:40.253Z,99.90
2023-08-21T08:34:07.728Z,99.90
2023-08-21T08:36:36.001Z,99.10
2023-08-21T08:39:03.696Z,99.10
2023-08-21T08:41:55.268Z,98.90
2023-08-21T08:44:26.112Z,98.30
2023-08-21T08:46:53.825Z,97.40
2023-08-21T08:49:23.184Z,95.40
2023-08-21T08:51:52.556Z,95.80
2023-08-21T08:54:21.731Z,95.30
2023-08-21T08:56:49.933Z,93.80
2023-08-21T08:59:17.624Z,92.90
2023-08-21T09:01:45.119Z,91.20
2023-08-21T09:04:13.069Z,92.20
2023-08-21T09:06:40.646Z,92.90
2023-08-21T09:09:11.603Z,92.40
2023-08-21T09:11:44.489Z,93.80
2023-08-21T09:14:12.777Z,93.90
2023-08-21T09:17:10.248Z,92.90
2023-08-21T09:19:38.063Z,88.90
2023-08-21T09:22:17.556Z,86.30
2023-08-21T09:25:15.079Z,84.00
2023-08-21T09:27:42.676Z,84.90
2023-08-21T09:30:11.210Z,86.30
2023-08-21T09:32:54.711Z,88.30
2023-08-21T09:35:22.970Z,90.00
2023-08-21T20:14:59.850Z,90.60
2023-08-21T20:17:29.637Z,99.90
2023-08-21T20:19:57.170Z,99.90
2023-08-21T20:22:24.650Z,99.90
2023-08-21T20:24:53.180Z,99.90
2023-08-21T20:27:20.598Z,99.90
2023-08-21T20:29:47.980Z,99.90
